Time;durP1;ratioP1;P1;durP2;ratioP2;P2;SDS_P1;SDS_P2;PMS_P1;PMS_P2;Temp;Humidity;BMP_temperature;BMP_pressure;BME280_temperature;BME280_humidity;BME280_pressure;Samples;Min_cycle;Max_cycle;Signal;HPM_P1;HPM_P2
2022/12/08 00:03:45;;;;;;;0.10;0.10;;;;;;;1.64;100.00;101442.16;10444841;28;20053;-82
2022/12/08 00:14:07;;;;;;;;;;;;;;;1.43;100.00;101424.63;10457120;28;20056;-83
2022/12/08 00:19:09;;;;;;;1.65;0.52;;;;;;;1.47;100.00;101424.06;10444174;28;19924;-82
2022/12/08 00:24:11;;;;;;;0.45;0.40;;;;;;;1.36;100.00;101414.81;10443905;28;20052;-83
2022/12/08 00:29:13;;;;;;;0.20;0.20;;;;;;;1.34;100.00;101414.66;10427387;28;20041;-82
2022/12/08 00:34:18;;;;;;;0.98;0.45;;;;;;;1.32;100.00;101401.00;10443572;28;20400;-82
2022/12/08 00:39:20;;;;;;;0.10;0.10;;;;;;;1.33;100.00;101406.97;10435300;28;20091;-82
2022/12/08 00:44:22;;;;;;;0.05;0.05;;;;;;;1.40;100.00;101410.06;10444060;28;20098;-83
2022/12/08 00:49:23;;;;;;;0.43;0.25;;;;;;;1.44;100.00;101416.25;10427145;28;20554;-82
2022/12/08 00:54:25;;;;;;;6.18;3.58;;;;;;;1.50;100.00;101406.50;10427316;28;20048;-82
2022/12/08 00:59:27;;;;;;;0.28;0.28;;;;;;;1.57;100.00;101403.63;10469897;28;20033;-82
2022/12/08 01:04:29;;;;;;;0.57;0.52;;;;;;;1.69;100.00;101407.78;10457682;28;20056;-82
2022/12/08 01:09:31;;;;;;;0.20;0.20;;;;;;;1.68;100.00;101400.94;10441928;28;20033;-82
2022/12/08 01:14:33;;;;;;;0.20;0.20;;;;;;;1.78;100.00;101403.34;10441647;28;20098;-82
2022/12/08 01:19:35;;;;;;;0.10;0.10;;;;;;;1.81;100.00;101403.59;10441681;28;20480;-82
2022/12/08 01:24:37;;;;;;;0.35;0.35;;;;;;;1.94;100.00;101412.03;10441055;28;20053;-82
2022/12/08 01:29:39;;;;;;;1.20;0.50;;;;;;;2.02;100.00;101398.22;10440958;28;20049;-83
2022/12/08 01:34:40;;;;;;;0.38;0.38;;;;;;;2.06;100.00;101390.91;10432622;28;20076;-82
2022/12/08 01:39:42;;;;;;;0.13;0.13;;;;;;;2.13;100.00;101402.34;10458159;28;20041;-82
2022/12/08 01:44:44;;;;;;;0.45;0.22;;;;;;;2.21;100.00;101406.28;10458430;28;20135;-82
2022/12/08 01:49:46;;;;;;;0.00;0.00;;;;;;;2.25;100.00;101402.31;10440898;28;20041;-83
2022/12/08 01:54:52;;;;;;;0.70;0.70;;;;;;;2.35;100.00;101404.69;10440070;28;20045;-82
2022/12/08 02:00:06;;;;;;;0.30;0.30;;;;;;;2.38;100.00;101388.75;10440286;28;20040;-81
2022/12/08 02:05:10;;;;;;;0.85;0.60;;;;;;;2.40;100.00;101389.75;10423929;28;20073;-82
2022/12/08 02:10:16;;;;;;;0.65;0.65;;;;;;;2.43;100.00;101382.31;10399643;28;20100;-80
2022/12/08 02:15:22;;;;;;;0.75;0.45;;;;;;;2.41;100.00;101381.34;10426519;28;20459;-82
2022/12/08 02:21:07;;;;;;;0.40;0.40;;;;;;;2.41;100.00;101368.63;10426238;28;20052;-83
2022/12/08 02:26:18;;;;;;;0.05;0.05;;;;;;;2.43;100.00;101366.19;10449430;28;20045;-83
2022/12/08 02:31:46;;;;;;;0.25;0.25;;;;;;;2.42;100.00;101357.66;10439084;28;20051;-83
2022/12/08 02:37:05;;;;;;;1.20;1.10;;;;;;;2.49;100.00;101352.22;10396120;28;20065;-83
2022/12/08 02:42:13;;;;;;;1.58;0.70;;;;;;;2.49;100.00;101347.13;10446610;28;20033;-83
2022/12/08 02:47:17;;;;;;;0.20;0.20;;;;;;;2.44;100.00;101333.22;10426831;28;20103;-83
2022/12/08 02:52:19;;;;;;;0.35;0.20;;;;;;;2.51;100.00;101330.28;10429531;28;20037;-83
2022/12/08 02:57:40;;;;;;;1.15;0.17;;;;;;;2.53;100.00;101325.31;10447412;28;20045;-83
2022/12/08 03:03:00;;;;;;;1.40;1.27;;;;;;;2.51;100.00;101320.09;10448383;28;20044;-83
2022/12/08 03:08:11;;;;;;;1.08;0.45;;;;;;;2.56;100.00;101311.91;10460953;28;20041;-82
2022/12/08 03:13:19;;;;;;;1.30;0.75;;;;;;;2.58;100.00;101310.31;10487248;28;20075;-84
2022/12/08 03:18:30;;;;;;;0.75;0.75;;;;;;;2.57;100.00;101308.59;10445440;28;20099;-81
2022/12/08 03:23:35;;;;;;;1.13;0.50;;;;;;;2.59;100.00;101299.38;10454583;28;20052;-82
2022/12/08 03:28:38;;;;;;;0.30;0.30;;;;;;;2.64;100.00;101301.44;10461816;28;20083;-83
2022/12/08 03:33:44;;;;;;;0.20;0.20;;;;;;;2.62;100.00;101291.97;10471144;28;20071;-83
2022/12/08 03:38:51;;;;;;;1.48;0.28;;;;;;;2.59;100.00;101286.66;10448122;28;20045;-82
2022/12/08 03:43:58;;;;;;;1.63;1.00;;;;;;;2.61;100.00;101285.09;10431409;28;20081;-83
2022/12/08 03:49:00;;;;;;;3.08;1.15;;;;;;;2.56;100.00;101271.22;10484821;28;20043;-83
2022/12/08 03:54:01;;;;;;;0.30;0.30;;;;;;;2.56;100.00;101273.75;10495206;28;20044;-83
2022/12/08 03:59:04;;;;;;;0.03;0.03;;;;;;;2.52;100.00;101265.91;10488703;28;20086;-83
2022/12/08 04:04:06;;;;;;;0.00;0.00;;;;;;;2.54;100.00;101266.91;10503023;28;20051;-83
2022/12/08 04:09:07;;;;;;;0.63;0.32;;;;;;;2.52;100.00;101260.84;10503030;28;20045;-82
2022/12/08 04:14:09;;;;;;;0.10;0.10;;;;;;;2.52;100.00;101254.88;10487793;28;20033;-82
2022/12/08 04:19:11;;;;;;;0.00;0.00;;;;;;;2.50;100.00;101253.88;10483539;28;20392;-82
2022/12/08 04:24:12;;;;;;;0.10;0.10;;;;;;;2.56;100.00;101240.69;10480753;28;20056;-82
2022/12/08 04:29:16;;;;;;;0.20;0.20;;;;;;;2.57;100.00;101238.25;10460808;28;20044;-82
2022/12/08 04:34:18;;;;;;;0.68;0.57;;;;;;;2.57;100.00;101234.81;10470296;28;20053;-82
2022/12/08 04:39:19;;;;;;;0.40;0.40;;;;;;;2.59;100.00;101240.88;10484228;28;20049;-82
2022/12/08 04:44:21;;;;;;;0.30;0.30;;;;;;;2.63;100.00;101238.63;10484191;28;20403;-81
2022/12/08 04:49:23;;;;;;;0.22;0.22;;;;;;;2.66;100.00;101237.94;10501098;28;20044;-81
2022/12/08 04:54:25;;;;;;;0.13;0.13;;;;;;;2.65;100.00;101236.16;10484953;28;20048;-82
2022/12/08 04:59:27;;;;;;;0.22;0.22;;;;;;;2.62;100.00;101239.41;10478727;28;20045;-82
2022/12/08 05:04:28;;;;;;;0.50;0.30;;;;;;;2.65;100.00;101237.06;10479311;28;20068;-82
2022/12/08 05:09:30;;;;;;;0.22;0.17;;;;;;;2.60;100.00;101233.34;10467490;28;20135;-82
2022/12/08 05:14:32;;;;;;;0.30;0.30;;;;;;;2.59;100.00;101230.69;10503104;28;20059;-81
2022/12/08 05:19:33;;;;;;;0.10;0.10;;;;;;;2.58;100.00;101244.19;10499665;28;20040;-81
2022/12/08 05:24:35;;;;;;;0.65;0.30;;;;;;;2.58;100.00;101246.72;10453606;28;20044;-82
2022/12/08 05:29:37;;;;;;;0.57;0.43;;;;;;;2.59;100.00;101245.97;10464874;28;20037;-82
2022/12/08 05:34:38;;;;;;;1.40;0.57;;;;;;;2.56;100.00;101250.88;10482152;28;20045;-81
2022/12/08 05:39:40;;;;;;;1.35;0.28;;;;;;;2.47;100.00;101249.50;10480858;28;20131;-80
2022/12/08 05:44:42;;;;;;;0.50;0.50;;;;;;;2.34;100.00;101239.31;10481504;28;20040;-80
2022/12/08 05:49:43;;;;;;;0.08;0.05;;;;;;;2.39;100.00;101243.03;10497229;28;20127;-82
2022/12/08 05:54:45;;;;;;;0.00;0.00;;;;;;;2.30;100.00;101238.25;10481632;28;20422;-80
2022/12/08 05:59:47;;;;;;;0.20;0.20;;;;;;;2.32;100.00;101240.88;10486177;28;20480;-81
2022/12/08 06:04:49;;;;;;;0.10;0.10;;;;;;;2.34;100.00;101237.66;10464793;28;20399;-82
2022/12/08 06:09:50;;;;;;;0.20;0.20;;;;;;;2.35;100.00;101233.41;10479963;28;20044;-82
2022/12/08 06:14:52;;;;;;;2.65;0.30;;;;;;;2.35;100.00;101229.25;10469274;28;20049;-82
2022/12/08 06:19:53;;;;;;;1.35;0.17;;;;;;;2.39;100.00;101230.31;10461448;28;20083;-82
2022/12/08 06:24:55;;;;;;;0.10;0.10;;;;;;;2.38;100.00;101228.56;10479611;28;20488;-82
2022/12/08 06:29:57;;;;;;;0.00;0.00;;;;;;;2.38;100.00;101241.25;10478690;28;20040;-84
2022/12/08 06:34:58;;;;;;;0.22;0.13;;;;;;;2.39;100.00;101232.84;10475460;28;20045;-84
2022/12/08 06:40:00;;;;;;;0.30;0.30;;;;;;;2.37;100.00;101239.50;10466091;28;20076;-83
2022/12/08 06:45:03;;;;;;;0.15;0.15;;;;;;;2.38;100.00;101244.69;10455151;28;20072;-83
2022/12/08 06:50:05;;;;;;;0.10;0.10;;;;;;;2.38;100.00;101242.13;10465758;28;20094;-83
2022/12/08 06:55:08;;;;;;;0.00;0.00;;;;;;;2.27;100.00;101242.25;10466177;28;20048;-83
2022/12/08 07:00:10;;;;;;;0.22;0.20;;;;;;;2.31;100.00;101249.28;10477133;28;20044;-84
2022/12/08 07:05:16;;;;;;;0.15;0.15;;;;;;;2.31;100.00;101255.22;10472522;28;20072;-84
2022/12/08 07:10:20;;;;;;;1.30;0.52;;;;;;;2.21;100.00;101258.84;10494757;28;20047;-83
2022/12/08 07:15:26;;;;;;;0.90;0.40;;;;;;;2.26;100.00;101250.66;10471832;28;20045;-84
2022/12/08 07:20:55;;;;;;;0.10;0.10;;;;;;;2.28;100.00;101255.06;10455257;28;20163;-84
2022/12/08 07:26:04;;;;;;;0.20;0.20;;;;;;;2.17;100.00;101267.06;10485290;28;20041;-84
2022/12/08 07:31:14;;;;;;;0.00;0.00;;;;;;;2.05;100.00;101261.16;10465390;28;20068;-83
2022/12/08 07:36:16;;;;;;;0.35;0.30;;;;;;;1.98;100.00;101254.78;10475925;28;20056;-83
2022/12/08 07:41:21;;;;;;;0.00;0.00;;;;;;;1.89;100.00;101244.00;10502563;28;20491;-84
2022/12/08 07:46:25;;;;;;;0.38;0.17;;;;;;;1.84;100.00;101241.16;10474144;28;20052;-83
2022/12/08 07:51:27;;;;;;;1.42;0.50;;;;;;;1.80;100.00;101241.75;10459967;28;20065;-83
2022/12/08 07:56:28;;;;;;;0.28;0.25;;;;;;;1.81;100.00;101251.13;10472762;28;20561;-83
2022/12/08 08:01:32;;;;;;;0.00;0.00;;;;;;;1.87;100.00;101248.09;10483871;28;20048;-83
2022/12/08 08:06:36;;;;;;;0.05;0.05;;;;;;;1.87;100.00;101260.81;10484726;28;20408;-84
2022/12/08 08:11:38;;;;;;;0.00;0.00;;;;;;;1.86;100.00;101265.03;10500161;28;20484;-83
2022/12/08 08:16:45;;;;;;;0.00;0.00;;;;;;;1.88;100.00;101268.56;10484224;28;20040;-83
2022/12/08 08:21:47;;;;;;;0.00;0.00;;;;;;;1.89;100.00;101262.69;10483414;28;20044;-83
2022/12/08 08:26:49;;;;;;;0.00;0.00;;;;;;;1.92;100.00;101264.56;10483984;28;20040;-83
2022/12/08 08:31:50;;;;;;;0.00;0.00;;;;;;;1.95;100.00;101256.25;10483704;28;20453;-84
2022/12/08 08:36:52;;;;;;;0.00;0.00;;;;;;;1.95;100.00;101263.88;10483001;28;20059;-84
2022/12/08 08:41:54;;;;;;;0.03;0.03;;;;;;;1.98;100.00;101264.06;10483591;28;20079;-84
2022/12/08 08:47:01;;;;;;;0.15;0.15;;;;;;;2.08;100.00;101266.44;10469227;28;20045;-83
2022/12/08 08:52:03;;;;;;;0.05;0.05;;;;;;;2.17;100.00;101279.78;10491683;28;20051;-84
2022/12/08 08:57:05;;;;;;;0.00;0.00;;;;;;;2.28;100.00;101277.03;10482400;28;20048;-84
2022/12/08 09:02:14;;;;;;;0.03;0.03;;;;;;;2.29;100.00;101288.97;10483141;28;20070;-85
2022/12/08 09:07:16;;;;;;;0.47;0.33;;;;;;;2.32;100.00;101294.28;10482148;28;20404;-84
2022/12/08 09:12:18;;;;;;;0.25;0.10;;;;;;;2.33;100.00;101299.44;10482020;28;20044;-85
2022/12/08 09:17:19;;;;;;;0.00;0.00;;;;;;;2.40;100.00;101300.75;10482730;28;20045;-85
2022/12/08 09:22:21;;;;;;;0.15;0.15;;;;;;;2.37;100.00;101303.06;10481726;28;20075;-84
2022/12/08 09:27:23;;;;;;;0.10;0.10;;;;;;;2.41;100.00;101305.06;10482904;28;20048;-84
2022/12/08 09:32:25;;;;;;;0.00;0.00;;;;;;;2.40;100.00;101303.28;10482406;28;20545;-85
2022/12/08 09:37:29;;;;;;;0.08;0.08;;;;;;;2.44;100.00;101294.19;10508574;28;20127;-83
2022/12/08 09:42:37;;;;;;;0.00;0.00;;;;;;;2.49;100.00;101298.81;10497419;28;20032;-84
2022/12/08 09:48:03;;;;;;;0.68;0.55;;;;;;;2.56;100.00;101304.28;10497092;28;20129;-83
2022/12/08 09:53:26;;;;;;;4.97;1.55;;;;;;;2.63;100.00;101308.97;10467938;28;20102;-85
2022/12/08 09:58:46;;;;;;;0.00;0.00;;;;;;;2.66;100.00;101306.63;10458202;28;20044;-84
2022/12/08 10:03:50;;;;;;;0.00;0.00;;;;;;;2.60;100.00;101290.97;10467322;28;20047;-83
2022/12/08 10:09:17;;;;;;;0.00;0.00;;;;;;;2.90;100.00;101289.50;10463929;28;20041;-84
2022/12/08 10:14:46;;;;;;;0.10;0.10;;;;;;;2.83;100.00;101283.16;10466152;28;20055;-83
2022/12/08 10:19:54;;;;;;;0.00;0.00;;;;;;;2.69;100.00;101273.75;10465317;28;20431;-84
2022/12/08 10:25:19;;;;;;;0.10;0.10;;;;;;;2.74;100.00;101274.06;10473391;28;20040;-84
2022/12/08 10:30:21;;;;;;;0.00;0.00;;;;;;;2.91;100.00;101264.94;10455963;28;20063;-84
2022/12/08 10:35:24;;;;;;;0.10;0.00;;;;;;;2.93;100.00;101259.16;10463012;28;20075;-84
2022/12/08 10:40:33;;;;;;;0.30;0.13;;;;;;;3.00;100.00;101248.56;10472731;28;20406;-84
2022/12/08 10:45:42;;;;;;;0.10;0.10;;;;;;;3.03;100.00;101232.59;10467077;28;20458;-85
2022/12/08 10:50:46;;;;;;;0.00;0.00;;;;;;;2.79;100.00;101229.41;10486140;28;20049;-84
2022/12/08 10:55:52;;;;;;;0.00;0.00;;;;;;;2.99;100.00;101220.47;10483877;28;20049;-85
2022/12/08 11:01:01;;;;;;;0.00;0.00;;;;;;;2.94;100.00;101214.22;10484540;28;20043;-84
2022/12/08 11:06:17;;;;;;;0.00;0.00;;;;;;;2.90;100.00;101208.06;10499122;28;20090;-82
2022/12/08 11:11:20;;;;;;;0.17;0.17;;;;;;;2.88;100.00;101198.56;10479072;28;20086;-84
2022/12/08 11:16:29;;;;;;;;;;;;;;;2.77;100.00;101206.44;10512820;28;20043;-84
2022/12/08 11:21:36;;;;;;;0.00;0.00;;;;;;;2.89;100.00;101197.78;10491617;28;19920;-84
2022/12/08 11:26:38;;;;;;;0.00;0.00;;;;;;;2.84;100.00;101190.75;10484774;28;20050;-84
2022/12/08 11:31:48;;;;;;;0.28;0.28;;;;;;;2.80;100.00;101181.16;10481777;28;20045;-84
2022/12/08 11:36:53;;;;;;;0.22;0.22;;;;;;;2.74;100.00;101162.97;10504326;28;20049;-84
2022/12/08 11:41:56;;;;;;;0.20;0.17;;;;;;;2.86;100.00;101160.31;10492665;28;20056;-84
2022/12/08 11:47:04;;;;;;;0.00;0.00;;;;;;;2.83;100.00;101155.91;10485745;28;20071;-83
2022/12/08 11:52:41;;;;;;;0.00;0.00;;;;;;;2.93;100.00;101151.38;10474186;28;20049;-85
2022/12/08 11:57:44;;;;;;;0.30;0.17;;;;;;;2.85;100.00;101139.06;10480432;28;20075;-84
2022/12/08 12:02:55;;;;;;;0.20;0.13;;;;;;;2.78;100.00;101134.41;10477247;28;20064;-85
2022/12/08 12:08:20;;;;;;;0.05;0.05;;;;;;;2.90;100.00;101130.81;10467893;28;20087;-85
2022/12/08 12:13:51;;;;;;;0.00;0.00;;;;;;;2.79;100.00;101115.78;10477273;28;20033;-85
2022/12/08 12:19:09;;;;;;;0.10;0.10;;;;;;;2.76;100.00;101092.72;10484766;28;20049;-85
2022/12/08 12:24:31;;;;;;;0.00;0.00;;;;;;;2.92;100.00;101083.44;10460676;28;20044;-85
2022/12/08 12:29:43;;;;;;;0.00;0.00;;;;;;;2.90;100.00;101079.94;10454652;28;20519;-85
2022/12/08 12:34:53;;;;;;;0.00;0.00;;;;;;;2.92;100.00;101069.06;10455271;28;20408;-86
2022/12/08 12:40:01;;;;;;;0.00;0.00;;;;;;;2.85;100.00;101065.28;10449407;28;20090;-85
2022/12/08 12:45:16;;;;;;;0.20;0.05;;;;;;;2.96;100.00;101054.84;10464848;28;20044;-85
2022/12/08 12:50:33;;;;;;;0.20;0.20;;;;;;;2.90;100.00;101042.66;10468188;28;20404;-84
2022/12/08 12:55:44;;;;;;;0.00;0.00;;;;;;;2.97;100.00;101038.78;10461771;28;20048;-85
2022/12/08 13:00:46;;;;;;;0.75;0.68;;;;;;;2.95;100.00;101032.72;10478688;28;20036;-84
2022/12/08 13:05:51;;;;;;;0.30;0.30;;;;;;;3.00;100.00;101026.25;10445661;28;20061;-85
2022/12/08 13:11:01;;;;;;;0.08;0.08;;;;;;;2.87;100.00;101029.72;10477525;28;20047;-85
2022/12/08 13:16:13;;;;;;;0.00;0.00;;;;;;;2.94;100.00;101026.75;10489779;28;20041;-86
2022/12/08 13:21:22;;;;;;;0.00;0.00;;;;;;;2.84;100.00;101015.16;10440604;28;20060;-86
2022/12/08 13:26:26;;;;;;;0.00;0.00;;;;;;;2.91;100.00;101012.97;10465766;28;20128;-86
2022/12/08 13:31:46;;;;;;;0.05;0.05;;;;;;;2.99;100.00;100999.03;10450260;28;20086;-85
2022/12/08 13:37:10;;;;;;;0.55;0.35;;;;;;;2.92;100.00;100991.84;10477651;28;20051;-86
2022/12/08 13:42:12;;;;;;;0.10;0.07;;;;;;;2.95;100.00;100981.81;10483759;28;20040;-85
2022/12/08 13:47:18;;;;;;;0.00;0.00;;;;;;;2.92;100.00;100986.75;10479350;28;20048;-85
2022/12/08 13:52:47;;;;;;;0.00;0.00;;;;;;;2.94;100.00;100982.63;10479749;28;20082;-86
2022/12/08 13:58:19;;;;;;;;;;;;;;;2.74;100.00;100977.22;10478384;28;20045;-86
2022/12/08 14:03:21;;;;;;;0.20;0.20;;;;;;;2.69;100.00;100973.56;10477237;28;20433;-86
2022/12/08 14:08:30;;;;;;;0.00;0.00;;;;;;;2.67;100.00;100980.22;10492206;28;20053;-86
2022/12/08 14:13:52;;;;;;;0.10;0.10;;;;;;;2.64;100.00;100982.59;10462567;28;20119;-80
2022/12/08 14:18:54;;;;;;;0.10;0.10;;;;;;;2.52;100.00;100982.72;10472954;28;20048;-80
2022/12/08 14:24:00;;;;;;;0.00;0.00;;;;;;;2.35;100.00;100987.69;10479158;28;20041;-81
2022/12/08 14:29:02;;;;;;;0.13;0.05;;;;;;;2.08;100.00;100986.88;10488615;28;20051;-87
2022/12/08 14:34:04;;;;;;;0.00;0.00;;;;;;;1.85;100.00;100986.31;10511289;28;20043;-87
2022/12/08 14:39:07;;;;;;;0.03;0.03;;;;;;;1.84;100.00;100992.19;10495376;28;20057;-87
2022/12/08 14:44:37;;;;;;;0.20;0.20;;;;;;;1.88;100.00;100999.22;10485889;28;20106;-87
2022/12/08 14:49:39;;;;;;;0.00;0.00;;;;;;;1.72;100.00;100999.03;10458080;28;20079;-88
2022/12/08 14:54:42;;;;;;;0.45;0.45;;;;;;;1.77;100.00;101002.75;10461992;28;20062;-87
2022/12/08 14:59:45;;;;;;;0.00;0.00;;;;;;;1.96;100.00;101007.31;10475426;28;20246;-87
2022/12/08 15:04:53;;;;;;;0.63;0.43;;;;;;;1.87;100.00;101006.72;10474737;28;20055;-86
2022/12/08 15:10:15;;;;;;;0.00;0.00;;;;;;;1.83;100.00;101012.41;10484853;28;20340;-86
2022/12/08 15:15:17;;;;;;;0.32;0.30;;;;;;;1.86;100.00;101013.50;10499508;28;20045;-86
2022/12/08 15:20:28;;;;;;;0.00;0.00;;;;;;;1.97;100.00;101021.78;10461356;28;20041;-87
2022/12/08 15:25:38;;;;;;;0.00;0.00;;;;;;;1.78;100.00;101014.66;10448104;28;20052;-87
2022/12/08 15:30:40;;;;;;;0.00;0.00;;;;;;;1.80;100.00;101015.66;10447095;28;20044;-87
2022/12/08 15:35:42;;;;;;;0.00;0.00;;;;;;;1.77;100.00;101017.97;10475043;28;20071;-87
2022/12/08 15:40:44;;;;;;;0.00;0.00;;;;;;;1.78;100.00;101029.91;10467176;28;20511;-86
2022/12/08 15:45:46;;;;;;;0.40;0.38;;;;;;;1.77;100.00;101029.81;10477208;28;20082;-87
2022/12/08 15:50:59;;;;;;;1.17;0.28;;;;;;;1.81;100.00;101045.34;10490303;28;20083;-87
2022/12/08 15:56:06;;;;;;;0.00;0.00;;;;;;;1.71;100.00;101048.09;10470570;28;20131;-87
2022/12/08 16:01:27;;;;;;;0.00;0.00;;;;;;;1.69;100.00;101048.00;10483823;28;20402;-87
2022/12/08 16:06:29;;;;;;;0.00;0.00;;;;;;;1.69;100.00;101052.19;10474622;28;20056;-87
2022/12/08 16:17:16;;;;;;;0.00;0.00;;;;;;;1.74;100.00;101050.84;10477573;28;20491;-87
2022/12/08 16:22:26;;;;;;;0.00;0.00;;;;;;;1.79;100.00;101053.66;10467461;28;20400;-86
2022/12/08 16:27:50;;;;;;;0.08;0.03;;;;;;;1.80;100.00;101063.03;10468868;28;20048;-87
2022/12/08 16:33:04;;;;;;;0.00;0.00;;;;;;;1.81;100.00;101068.22;10495643;28;20048;-87
2022/12/08 16:38:06;;;;;;;0.08;0.08;;;;;;;1.84;100.00;101076.03;10488528;28;20348;-86
2022/12/08 16:43:08;;;;;;;0.00;0.00;;;;;;;1.93;100.00;101078.28;10494632;28;20047;-86
2022/12/08 16:48:13;;;;;;;0.22;0.22;;;;;;;1.98;100.00;101092.16;10491072;28;20040;-87
2022/12/08 16:53:15;;;;;;;0.35;0.35;;;;;;;1.93;100.00;101085.91;10486583;28;20049;-87
2022/12/08 16:58:17;;;;;;;0.30;0.30;;;;;;;1.89;100.00;101084.84;10486955;28;20045;-87
2022/12/08 17:03:19;;;;;;;0.10;0.10;;;;;;;1.86;100.00;101084.63;10485965;28;20049;-87
2022/12/08 17:08:21;;;;;;;0.35;0.30;;;;;;;1.83;100.00;101086.97;10461549;28;20522;-87
2022/12/08 17:13:23;;;;;;;0.17;0.17;;;;;;;1.72;100.00;101082.88;10457413;28;20492;-87
2022/12/08 17:18:24;;;;;;;0.00;0.00;;;;;;;1.54;100.00;101085.09;10474578;28;20040;-86
2022/12/08 17:23:26;;;;;;;0.17;0.17;;;;;;;1.54;100.00;101073.25;10531259;28;20131;-88
2022/12/08 17:28:28;;;;;;;0.20;0.20;;;;;;;1.52;100.00;101067.22;10511862;28;20067;-87
2022/12/08 17:33:58;;;;;;;0.32;0.32;;;;;;;1.69;100.00;101063.22;10518599;28;20045;-87
2022/12/08 17:38:59;;;;;;;0.22;0.22;;;;;;;1.68;100.00;101058.03;10514102;28;20127;-87
2022/12/08 17:44:01;;;;;;;0.15;0.15;;;;;;;1.74;100.00;101059.31;10489551;28;20075;-86
2022/12/08 17:49:08;;;;;;;1.13;0.30;;;;;;;1.51;100.00;101057.84;10484414;28;20439;-86
2022/12/08 17:54:10;;;;;;;0.00;0.00;;;;;;;1.75;100.00;101060.19;10473460;28;20045;-85
2022/12/08 17:59:13;;;;;;;0.28;0.28;;;;;;;1.57;100.00;101060.78;10472149;28;20105;-87
2022/12/08 18:04:14;;;;;;;0.17;0.17;;;;;;;1.58;100.00;101060.00;10461707;28;20048;-86
2022/12/08 18:09:16;;;;;;;0.52;0.52;;;;;;;1.63;100.00;101064.47;10465767;28;20412;-87
2022/12/08 18:14:19;;;;;;;0.17;0.17;;;;;;;1.62;100.00;101055.09;10467326;28;20045;-87
2022/12/08 18:19:21;;;;;;;0.52;0.45;;;;;;;1.63;100.00;101062.84;10453244;28;20045;-87
2022/12/08 18:24:22;;;;;;;0.20;0.20;;;;;;;1.63;100.00;101059.41;10473534;28;20378;-87
2022/12/08 18:29:24;;;;;;;0.77;0.63;;;;;;;1.62;100.00;101061.06;10455810;28;20041;-88
2022/12/08 18:34:26;;;;;;;0.13;0.13;;;;;;;1.54;100.00;101065.66;10450443;28;20041;-87
2022/12/08 18:39:30;;;;;;;0.22;0.22;;;;;;;1.47;100.00;101066.03;10450161;28;20626;-87
2022/12/08 18:44:32;;;;;;;0.00;0.00;;;;;;;1.41;100.00;101058.00;10459575;28;20045;-85
2022/12/08 18:49:33;;;;;;;0.98;0.43;;;;;;;1.44;100.00;101065.84;10476234;28;20097;-85
2022/12/08 18:54:36;;;;;;;0.55;0.15;;;;;;;1.47;100.00;101072.78;10460389;28;20052;-85
2022/12/08 18:59:58;;;;;;;1.30;0.82;;;;;;;1.45;100.00;101072.69;10452746;28;20132;-86
2022/12/08 19:05:00;;;;;;;0.80;0.60;;;;;;;1.50;100.00;101071.31;10483059;28;20472;-85
2022/12/08 19:10:02;;;;;;;0.63;0.55;;;;;;;1.51;100.00;101068.00;10475737;28;20072;-86
2022/12/08 19:15:05;;;;;;;0.00;0.00;;;;;;;1.54;100.00;101068.19;10476866;28;20044;-85
2022/12/08 19:20:07;;;;;;;1.48;0.65;;;;;;;1.60;100.00;101072.78;10479627;28;20143;-86
2022/12/08 19:25:09;;;;;;;0.25;0.10;;;;;;;1.71;100.00;101070.94;10484138;28;20045;-85
2022/12/08 19:30:11;;;;;;;0.17;0.17;;;;;;;1.60;100.00;101061.75;10483047;28;20050;-86
2022/12/08 19:35:13;;;;;;;1.80;1.13;;;;;;;1.76;100.00;101059.41;10480951;28;20067;-85
2022/12/08 19:45:35;;;;;;;1.63;1.20;;;;;;;1.79;100.00;101054.53;10501370;28;20385;-86
2022/12/08 19:50:39;;;;;;;0.45;0.43;;;;;;;1.78;100.00;101049.38;10482871;28;20058;-85
2022/12/08 19:55:42;;;;;;;0.32;0.32;;;;;;;1.65;100.00;101048.56;10482756;28;20492;-86
2022/12/08 20:00:45;;;;;;;1.27;1.17;;;;;;;1.83;100.00;101047.97;10499794;28;20059;-85
2022/12/08 20:05:48;;;;;;;0.28;0.28;;;;;;;1.84;100.00;101053.16;10511921;28;20032;-85
2022/12/08 20:10:54;;;;;;;0.10;0.10;;;;;;;1.85;100.00;101054.91;10504155;28;20032;-86
2022/12/08 20:15:56;;;;;;;0.63;0.63;;;;;;;1.87;100.00;101050.81;10456222;28;20099;-86
2022/12/08 20:20:58;;;;;;;0.20;0.20;;;;;;;1.77;100.00;101060.31;10470292;28;20483;-86
2022/12/08 20:26:04;;;;;;;0.32;0.20;;;;;;;1.87;100.00;101067.72;10481166;28;20044;-86
2022/12/08 20:31:05;;;;;;;0.32;0.20;;;;;;;1.68;100.00;101060.56;10470020;28;20047;-86
2022/12/08 20:36:14;;;;;;;1.63;1.23;;;;;;;1.66;100.00;101063.03;10481074;28;20080;-86
2022/12/08 20:41:17;;;;;;;0.13;0.13;;;;;;;1.61;100.00;101058.41;10469786;28;20068;-86
2022/12/08 20:46:19;;;;;;;0.22;0.22;;;;;;;1.58;100.00;101062.53;10481123;28;20079;-85
2022/12/08 20:51:22;;;;;;;0.47;0.47;;;;;;;1.65;100.00;101062.94;10458365;28;20085;-85
2022/12/08 20:56:32;;;;;;;3.13;2.80;;;;;;;1.66;100.00;101057.94;10464577;28;20082;-87
2022/12/08 21:01:34;;;;;;;2.78;2.42;;;;;;;1.61;100.00;101061.84;10478939;28;20373;-86
2022/12/08 21:06:35;;;;;;;1.50;1.35;;;;;;;1.65;100.00;101058.72;10478840;28;20052;-86
2022/12/08 21:11:37;;;;;;;0.25;0.25;;;;;;;1.66;100.00;101052.00;10479624;28;20403;-86
2022/12/08 21:16:39;;;;;;;0.40;0.40;;;;;;;1.69;100.00;101052.19;10469350;28;20106;-86
2022/12/08 21:21:41;;;;;;;0.60;0.43;;;;;;;1.80;100.00;101061.38;10493081;28;20032;-86
2022/12/08 21:26:43;;;;;;;0.70;0.25;;;;;;;1.72;100.00;101058.34;10465086;28;20062;-85
2022/12/08 21:31:45;;;;;;;0.98;0.80;;;;;;;1.76;100.00;101058.53;10443684;28;20496;-85
2022/12/08 21:36:47;;;;;;;0.82;0.60;;;;;;;1.81;100.00;101063.13;10488135;28;20058;-85
2022/12/08 21:47:09;;;;;;;0.22;0.22;;;;;;;1.80;100.00;101055.41;10470378;28;20416;-85
2022/12/08 21:52:10;;;;;;;1.08;0.45;;;;;;;1.82;100.00;101054.75;10456655;28;20041;-86
2022/12/08 21:57:12;;;;;;;0.70;0.70;;;;;;;1.87;100.00;101050.81;10453090;28;20056;-86
2022/12/08 22:02:14;;;;;;;0.90;0.63;;;;;;;1.89;100.00;101041.66;10454750;28;20064;-86
2022/12/08 22:07:23;;;;;;;0.20;0.20;;;;;;;1.86;100.00;101041.44;10448603;28;20508;-86
2022/12/08 22:12:24;;;;;;;0.15;0.15;;;;;;;1.90;100.00;101043.38;10440295;28;20037;-86
2022/12/08 22:30:48;;;;;;;0.03;0.03;;;;;;;2.05;100.00;101047.66;10486357;28;20033;-83
2022/12/08 22:35:57;;;;;;;0.17;0.17;;;;;;;1.99;100.00;101042.19;10480847;28;20297;-83
2022/12/08 22:41:03;;;;;;;1.30;0.50;;;;;;;1.85;100.00;101044.75;10480803;28;20145;-83
2022/12/08 22:46:19;;;;;;;0.38;0.38;;;;;;;1.85;100.00;101039.69;10464924;28;20048;-82
2022/12/08 22:51:21;;;;;;;0.68;0.68;;;;;;;2.01;100.00;101031.34;10480070;28;20086;-82
2022/12/08 22:56:23;;;;;;;0.68;0.22;;;;;;;1.85;100.00;101033.72;10486711;28;20514;-84
2022/12/08 23:01:28;;;;;;;0.68;0.68;;;;;;;1.83;100.00;101030.19;10463077;28;20051;-84
2022/12/08 23:06:30;;;;;;;2.85;0.57;;;;;;;1.68;100.00;101035.16;10481257;28;20044;-84
2022/12/08 23:11:32;;;;;;;0.60;0.52;;;;;;;1.57;100.00;101037.91;10494200;28;20459;-84
2022/12/08 23:16:34;;;;;;;1.85;0.55;;;;;;;1.65;100.00;101050.22;10487869;28;20049;-84
2022/12/08 23:21:36;;;;;;;0.55;0.40;;;;;;;1.69;100.00;101057.25;10498331;28;20041;-83
2022/12/08 23:26:38;;;;;;;6.18;1.17;;;;;;;1.62;100.00;101062.72;10487626;28;20044;-83
2022/12/08 23:31:42;;;;;;;0.10;0.10;;;;;;;1.60;100.00;101066.84;10487315;28;20102;-84
2022/12/08 23:36:43;;;;;;;4.07;1.02;;;;;;;1.63;100.00;101061.94;10504123;28;20479;-83
2022/12/08 23:41:45;;;;;;;1.23;0.30;;;;;;;1.58;100.00;101066.72;10486712;28;20049;-84
2022/12/08 23:46:47;;;;;;;1.02;0.68;;;;;;;1.58;100.00;101075.25;10486551;28;20044;-84
2022/12/08 23:51:49;;;;;;;0.45;0.45;;;;;;;1.53;100.00;101070.63;10486792;28;20052;-84
2022/12/08 23:56:51;;;;;;;0.75;0.70;;;;;;;1.52;100.00;101062.16;10486330;28;20049;-84
